Time;durP1;ratioP1;P1;durP2;ratioP2;P2;SDS_P1;SDS_P2;PMS_P1;PMS_P2;Temp;Humidity;BMP_temperature;BMP_pressure;BME280_temperature;BME280_humidity;BME280_pressure;Samples;Min_cycle;Max_cycle;Signal;HPM_P1;HPM_P2
2023/06/04 00:02:03;;;;;;;;;;;13.20;95.50;;;;;;5137716;27;19982;-43
2023/06/04 00:04:28;;;;;;;;;;;13.20;96.00;;;;;;5137703;27;19907;-43
2023/06/04 00:06:54;;;;;;;;;;;13.10;96.00;;;;;;5136882;27;20431;-44
2023/06/04 00:09:19;;;;;;;;;;;13.10;96.50;;;;;;5137693;27;19914;-42
2023/06/04 00:11:45;;;;;;;;;;;13.10;96.40;;;;;;5137523;27;19911;-45
2023/06/04 00:14:11;;;;;;;;;;;13.00;96.50;;;;;;5136832;27;20401;-43
2023/06/04 00:16:36;;;;;;;;;;;13.00;96.60;;;;;;5137384;27;19926;-44
2023/06/04 00:19:02;;;;;;;;;;;13.00;97.00;;;;;;5137473;27;19997;-43
2023/06/04 00:21:28;;;;;;;;;;;13.00;97.50;;;;;;5136513;27;19915;-42
2023/06/04 00:23:54;;;;;;;;;;;12.90;97.70;;;;;;5137645;27;20401;-44
2023/06/04 00:26:20;;;;;;;;;;;12.90;98.30;;;;;;5137327;27;20408;-44
2023/06/04 00:28:45;;;;;;;;;;;12.90;98.40;;;;;;5136347;27;20350;-41
2023/06/04 00:31:12;;;;;;;;;;;12.90;98.40;;;;;;5137238;27;19933;-43
2023/06/04 00:33:38;;;;;;;;;;;12.90;98.50;;;;;;5137089;27;19914;-44
2023/06/04 00:36:04;;;;;;;;;;;12.90;98.40;;;;;;5136321;27;20381;-43
2023/06/04 00:38:30;;;;;;;;;;;12.90;99.00;;;;;;5136802;27;19919;-45
2023/06/04 00:40:55;;;;;;;;;;;12.90;99.10;;;;;;5137195;27;19908;-43
2023/06/04 00:43:21;;;;;;;;;;;12.80;99.20;;;;;;5136169;27;20357;-44
2023/06/04 00:45:46;;;;;;;;;;;12.80;99.10;;;;;;5137166;27;19957;-42
2023/06/04 00:48:11;;;;;;;;;;;12.90;99.50;;;;;;5136194;27;20333;-46
2023/06/04 00:50:38;;;;;;;;;;;12.80;99.60;;;;;;5136919;27;20007;-42
2023/06/04 00:53:04;;;;;;;;;;;12.80;99.90;;;;;;5136856;27;20362;-42
2023/06/04 00:55:31;;;;;;;;;;;12.80;99.90;;;;;;5135879;27;19970;-43
2023/06/04 00:57:57;;;;;;;;;;;12.80;99.90;;;;;;5136840;27;19912;-45
2023/06/04 01:00:22;;;;;;;;;;;12.80;99.90;;;;;;5136595;27;19914;-43
2023/06/04 01:02:51;;;;;;;;;;;12.70;99.90;;;;;;5135514;27;20056;-44
2023/06/04 01:05:20;;;;;;;;;;;12.70;99.90;;;;;;5136059;27;19927;-42
2023/06/04 01:07:46;;;;;;;;;;;12.70;99.90;;;;;;5136589;27;19912;-41
2023/06/04 01:10:15;;;;;;;;;;;12.70;99.90;;;;;;5135833;27;19911;-43
2023/06/04 01:12:41;;;;;;;;;;;12.70;99.90;;;;;;5136411;27;19912;-44
2023/06/04 01:15:07;;;;;;;;;;;12.70;99.90;;;;;;5136382;27;19919;-46
2023/06/04 01:17:38;;;;;;;;;;;12.70;99.90;;;;;;5135663;27;20019;-47
2023/06/04 01:20:08;;;;;;;;;;;12.60;99.90;;;;;;5136425;27;19908;-43
2023/06/04 01:22:40;;;;;;;;;;;12.60;99.90;;;;;;5136262;27;20001;-42
2023/06/04 01:25:11;;;;;;;;;;;12.60;99.90;;;;;;5135538;27;19933;-43
2023/06/04 01:27:37;;;;;;;;;;;12.60;99.90;;;;;;5136100;27;20014;-44
2023/06/04 01:30:03;;;;;;;;;;;12.50;99.90;;;;;;5136203;27;19965;-42
2023/06/04 01:32:29;;;;;;;;;;;12.50;99.90;;;;;;5135411;27;19953;-44
2023/06/04 01:34:55;;;;;;;;;;;12.40;99.90;;;;;;5136041;27;19911;-47
2023/06/04 01:37:20;;;;;;;;;;;12.40;99.90;;;;;;5135812;27;19972;-41
2023/06/04 01:39:46;;;;;;;;;;;12.40;99.90;;;;;;5135037;27;19911;-43
2023/06/04 01:42:11;;;;;;;;;;;12.30;99.90;;;;;;5136089;27;19911;-42
2023/06/04 01:44:37;;;;;;;;;;;12.30;99.90;;;;;;5134885;27;19907;-46
2023/06/04 01:47:02;;;;;;;;;;;12.30;99.90;;;;;;5135871;27;19907;-42
2023/06/04 01:49:28;;;;;;;;;;;12.30;99.90;;;;;;5135768;27;20327;-46
2023/06/04 01:51:53;;;;;;;;;;;12.20;99.90;;;;;;5134986;27;19908;-43
2023/06/04 01:54:19;;;;;;;;;;;12.20;99.90;;;;;;5135619;27;20037;-42
2023/06/04 01:56:44;;;;;;;;;;;12.20;99.90;;;;;;5135580;27;19916;-44
2023/06/04 01:59:11;;;;;;;;;;;12.20;99.90;;;;;;5134785;27;19907;-45
2023/06/04 02:01:37;;;;;;;;;;;12.10;99.90;;;;;;5135481;27;19943;-42
2023/06/04 02:04:03;;;;;;;;;;;12.10;99.90;;;;;;5135536;27;19947;-43
2023/06/04 02:06:29;;;;;;;;;;;12.00;99.90;;;;;;5134682;27;19907;-45
2023/06/04 02:08:55;;;;;;;;;;;12.00;99.90;;;;;;5135316;27;19914;-42
2023/06/04 02:11:21;;;;;;;;;;;12.00;99.90;;;;;;5135303;27;19911;-47
2023/06/04 02:13:47;;;;;;;;;;;11.90;99.90;;;;;;5134459;27;19911;-43
2023/06/04 02:16:12;;;;;;;;;;;11.90;99.90;;;;;;5135056;27;19925;-42
2023/06/04 02:18:37;;;;;;;;;;;11.90;99.90;;;;;;5135102;27;20251;-43
2023/06/04 02:21:03;;;;;;;;;;;11.80;99.90;;;;;;5134358;27;19933;-42
2023/06/04 02:23:29;;;;;;;;;;;11.90;99.90;;;;;;5135012;27;19915;-44
2023/06/04 02:25:54;;;;;;;;;;;11.80;99.90;;;;;;5134917;27;19908;-44
2023/06/04 02:28:19;;;;;;;;;;;11.80;99.90;;;;;;5134242;27;20307;-44
2023/06/04 02:30:48;;;;;;;;;;;11.80;99.90;;;;;;5134824;27;19915;-46
2023/06/04 02:33:14;;;;;;;;;;;11.80;99.90;;;;;;5134926;27;19908;-46
2023/06/04 02:35:39;;;;;;;;;;;11.80;99.90;;;;;;5133905;27;20012;-43
2023/06/04 02:38:05;;;;;;;;;;;11.70;99.90;;;;;;5134453;27;19981;-43
2023/06/04 02:40:30;;;;;;;;;;;11.70;99.90;;;;;;5134821;27;20411;-44
2023/06/04 02:42:56;;;;;;;;;;;11.70;99.90;;;;;;5133969;27;19914;-42
2023/06/04 02:45:22;;;;;;;;;;;11.70;99.90;;;;;;5134703;27;19998;-44
2023/06/04 02:47:48;;;;;;;;;;;11.60;99.90;;;;;;5133774;27;19912;-45
2023/06/04 02:50:15;;;;;;;;;;;11.60;99.90;;;;;;5134640;27;19943;-44
2023/06/04 02:52:41;;;;;;;;;;;11.60;99.90;;;;;;5134424;27;20132;-44
2023/06/04 02:55:07;;;;;;;;;;;11.60;99.90;;;;;;5133696;27;20550;-43
2023/06/04 02:57:33;;;;;;;;;;;11.60;99.90;;;;;;5134529;27;19919;-43
2023/06/04 02:59:59;;;;;;;;;;;11.50;99.90;;;;;;5134364;27;20000;-43
2023/06/04 03:02:24;;;;;;;;;;;11.50;99.90;;;;;;5133744;27;19907;-43
2023/06/04 03:04:51;;;;;;;;;;;11.50;99.90;;;;;;5134323;27;19907;-43
2023/06/04 03:07:20;;;;;;;;;;;11.40;99.90;;;;;;5134277;27;19916;-43
2023/06/04 03:09:49;;;;;;;;;;;11.40;99.90;;;;;;5133511;27;19908;-41
2023/06/04 03:12:14;;;;;;;;;;;11.50;99.90;;;;;;5134165;27;19914;-43
2023/06/04 03:14:40;;;;;;;;;;;11.40;99.90;;;;;;5134080;27;19907;-44
2023/06/04 03:17:10;;;;;;;;;;;11.40;99.90;;;;;;5133232;27;19916;-44
2023/06/04 03:19:36;;;;;;;;;;;11.40;99.90;;;;;;5133999;27;19907;-44
2023/06/04 03:22:05;;;;;;;;;;;11.40;99.90;;;;;;5133988;27;20434;-42
2023/06/04 03:24:34;;;;;;;;;;;11.40;99.90;;;;;;5133031;27;20430;-42
2023/06/04 03:27:00;;;;;;;;;;;11.40;99.90;;;;;;5133443;27;19907;-43
2023/06/04 03:29:26;;;;;;;;;;;11.40;99.90;;;;;;5133822;27;19915;-43
2023/06/04 03:31:52;;;;;;;;;;;11.30;99.90;;;;;;5133031;27;19907;-42
2023/06/04 03:34:17;;;;;;;;;;;11.30;99.90;;;;;;5133878;27;20292;-47
2023/06/04 03:36:42;;;;;;;;;;;11.30;99.90;;;;;;5133380;27;19935;-45
2023/06/04 03:39:08;;;;;;;;;;;11.30;99.90;;;;;;5133046;27;19907;-43
2023/06/04 03:41:33;;;;;;;;;;;11.30;99.90;;;;;;5133709;27;19915;-43
2023/06/04 03:43:59;;;;;;;;;;;11.30;99.90;;;;;;5133591;27;20388;-45
2023/06/04 03:46:31;;;;;;;;;;;11.30;99.90;;;;;;5133266;27;19907;-43
2023/06/04 03:48:57;;;;;;;;;;;11.20;99.90;;;;;;5133679;27;20011;-43
2023/06/04 03:51:22;;;;;;;;;;;11.30;99.90;;;;;;5132718;28;20360;-43
2023/06/04 03:53:48;;;;;;;;;;;11.30;99.90;;;;;;5133619;28;20358;-43
2023/06/04 03:56:14;;;;;;;;;;;11.30;99.90;;;;;;5133880;28;19915;-46
2023/06/04 03:58:39;;;;;;;;;;;11.30;99.90;;;;;;5132746;28;20009;-43
2023/06/04 04:01:05;;;;;;;;;;;11.30;99.90;;;;;;5133631;28;19954;-43
2023/06/04 04:03:31;;;;;;;;;;;11.30;99.90;;;;;;5133363;28;19908;-43
2023/06/04 04:05:57;;;;;;;;;;;11.30;99.90;;;;;;5132606;28;19960;-45
2023/06/04 04:08:23;;;;;;;;;;;11.40;99.90;;;;;;5133585;28;19914;-45
2023/06/04 04:10:48;;;;;;;;;;;11.40;99.90;;;;;;5133381;28;20281;-45
2023/06/04 04:13:14;;;;;;;;;;;11.40;99.90;;;;;;5132553;28;19908;-44
2023/06/04 04:15:39;;;;;;;;;;;11.40;99.90;;;;;;5133188;28;19962;-45
2023/06/04 04:18:08;;;;;;;;;;;11.40;99.90;;;;;;5133276;28;19907;-45
2023/06/04 04:20:33;;;;;;;;;;;11.40;99.90;;;;;;5132575;28;19908;-45
2023/06/04 04:22:58;;;;;;;;;;;11.50;99.90;;;;;;5133429;28;20028;-44
2023/06/04 04:25:24;;;;;;;;;;;11.50;99.90;;;;;;5133377;28;19942;-43
2023/06/04 04:27:49;;;;;;;;;;;11.50;99.90;;;;;;5132533;28;19907;-43
2023/06/04 04:30:16;;;;;;;;;;;11.60;99.90;;;;;;5133254;28;19907;-42
2023/06/04 04:32:48;;;;;;;;;;;11.60;99.90;;;;;;5133114;28;19908;-42
2023/06/04 04:35:14;;;;;;;;;;;11.60;99.90;;;;;;5132543;28;20282;-45
2023/06/04 04:37:40;;;;;;;;;;;11.60;99.90;;;;;;5133503;27;20324;-44
2023/06/04 04:40:11;;;;;;;;;;;11.70;99.90;;;;;;5137221;27;19912;-43
2023/06/04 04:42:37;;;;;;;;;;;11.70;99.90;;;;;;5136323;27;20004;-46
2023/06/04 04:45:03;;;;;;;;;;;11.80;99.90;;;;;;5137074;27;19961;-43
2023/06/04 04:47:28;;;;;;;;;;;11.80;99.90;;;;;;5136127;27;19908;-44
2023/06/04 04:49:54;;;;;;;;;;;11.80;99.90;;;;;;5137060;27;19961;-43
2023/06/04 04:52:19;;;;;;;;;;;11.90;99.90;;;;;;5137018;27;19919;-43
2023/06/04 04:54:45;;;;;;;;;;;11.90;99.90;;;;;;5136098;27;20251;-42
2023/06/04 04:57:10;;;;;;;;;;;11.90;99.90;;;;;;5136740;27;19923;-44
2023/06/04 04:59:36;;;;;;;;;;;11.90;99.90;;;;;;5136718;27;19908;-44
2023/06/04 05:02:02;;;;;;;;;;;12.00;99.90;;;;;;5136033;27;19908;-45
2023/06/04 05:04:27;;;;;;;;;;;12.00;99.90;;;;;;5136680;27;20349;-45
2023/06/04 05:06:53;;;;;;;;;;;12.00;99.90;;;;;;5136643;27;19953;-43
2023/06/04 05:09:18;;;;;;;;;;;12.10;99.90;;;;;;5135780;27;19915;-44
2023/06/04 05:11:44;;;;;;;;;;;12.10;99.90;;;;;;5136468;27;20399;-44
2023/06/04 05:14:10;;;;;;;;;;;12.20;99.90;;;;;;5136603;27;19952;-44
2023/06/04 05:16:37;;;;;;;;;;;12.20;99.90;;;;;;5135736;27;19919;-43
2023/06/04 05:19:03;;;;;;;;;;;12.30;99.90;;;;;;5136463;27;19907;-47
2023/06/04 05:21:29;;;;;;;;;;;12.30;99.90;;;;;;5136347;27;19943;-44
2023/06/04 05:23:55;;;;;;;;;;;12.30;99.90;;;;;;5135476;27;19908;-43
2023/06/04 05:26:27;;;;;;;;;;;12.40;99.90;;;;;;5136325;27;19907;-45
2023/06/04 05:28:52;;;;;;;;;;;12.40;99.90;;;;;;5136359;27;19914;-43
2023/06/04 05:31:18;;;;;;;;;;;12.50;99.90;;;;;;5135364;27;19907;-44
2023/06/04 05:33:44;;;;;;;;;;;12.50;99.90;;;;;;5136201;27;20358;-45
2023/06/04 05:36:09;;;;;;;;;;;12.60;99.90;;;;;;5135992;27;19938;-46
2023/06/04 05:38:35;;;;;;;;;;;12.60;99.90;;;;;;5134982;27;19920;-42
2023/06/04 05:41:01;;;;;;;;;;;12.70;99.90;;;;;;5136059;27;19914;-44
2023/06/04 05:43:26;;;;;;;;;;;12.70;99.90;;;;;;5135887;27;19907;-43
2023/06/04 05:45:52;;;;;;;;;;;12.70;99.90;;;;;;5134977;27;19908;-44
2023/06/04 05:48:17;;;;;;;;;;;12.80;99.90;;;;;;5135795;27;19914;-45
2023/06/04 05:50:43;;;;;;;;;;;12.90;99.90;;;;;;5134335;27;19994;-46
2023/06/04 05:53:09;;;;;;;;;;;12.80;99.90;;;;;;5135691;27;19907;-43
2023/06/04 05:55:34;;;;;;;;;;;12.90;99.90;;;;;;5135488;27;19931;-44
2023/06/04 05:58:00;;;;;;;;;;;12.90;99.90;;;;;;5134841;27;20434;-43
2023/06/04 06:00:26;;;;;;;;;;;13.00;99.90;;;;;;5135340;27;19911;-44
2023/06/04 06:02:52;;;;;;;;;;;13.00;99.90;;;;;;5135494;27;19911;-46
2023/06/04 06:05:18;;;;;;;;;;;13.10;99.90;;;;;;5134747;27;19956;-44
2023/06/04 06:07:44;;;;;;;;;;;13.10;99.90;;;;;;5135318;27;19998;-44
2023/06/04 06:10:09;;;;;;;;;;;13.20;99.90;;;;;;5135425;27;20409;-45
2023/06/04 06:12:35;;;;;;;;;;;13.30;99.90;;;;;;5134479;27;19914;-44
2023/06/04 06:15:00;;;;;;;;;;;13.30;99.90;;;;;;5135157;27;19908;-45
2023/06/04 06:17:26;;;;;;;;;;;13.40;99.90;;;;;;5135205;27;19908;-43
2023/06/04 06:19:55;;;;;;;;;;;13.40;99.90;;;;;;5134362;27;19908;-43
2023/06/04 06:22:21;;;;;;;;;;;13.50;99.90;;;;;;5135210;27;19908;-43
2023/06/04 06:24:48;;;;;;;;;;;13.50;99.90;;;;;;5135108;27;19952;-42
2023/06/04 06:27:15;;;;;;;;;;;13.60;99.90;;;;;;5134316;27;20392;-43
2023/06/04 06:29:40;;;;;;;;;;;13.60;99.90;;;;;;5134996;27;19911;-45
2023/06/04 06:32:06;;;;;;;;;;;13.70;99.90;;;;;;5135039;27;20315;-44
2023/06/04 06:34:31;;;;;;;;;;;13.70;99.90;;;;;;5133988;27;19907;-43
2023/06/04 06:36:57;;;;;;;;;;;13.80;99.90;;;;;;5134532;27;19920;-43
2023/06/04 06:39:22;;;;;;;;;;;13.90;99.90;;;;;;5134899;27;19955;-45
2023/06/04 06:41:48;;;;;;;;;;;13.90;99.90;;;;;;5134053;27;19947;-44
2023/06/04 06:44:13;;;;;;;;;;;13.90;99.90;;;;;;5134574;27;19907;-46
2023/06/04 06:46:39;;;;;;;;;;;13.90;99.90;;;;;;5134711;27;19911;-44
2023/06/04 06:49:04;;;;;;;;;;;14.00;99.90;;;;;;5133941;27;19998;-43
2023/06/04 06:51:30;;;;;;;;;;;14.00;99.90;;;;;;5134534;27;19908;-44
2023/06/04 06:53:55;;;;;;;;;;;14.10;99.90;;;;;;5134017;27;19907;-49
2023/06/04 06:56:21;;;;;;;;;;;14.10;99.90;;;;;;5134633;27;19915;-44
2023/06/04 06:58:46;;;;;;;;;;;14.20;99.90;;;;;;5134464;27;19961;-44
2023/06/04 07:01:12;;;;;;;;;;;14.20;99.90;;;;;;5132889;27;19908;-45
2023/06/04 07:03:39;;;;;;;;;;;14.30;99.90;;;;;;5134261;27;19912;-44
2023/06/04 07:06:08;;;;;;;;;;;14.40;99.90;;;;;;5134358;27;20432;-44
2023/06/04 07:08:33;;;;;;;;;;;14.50;99.90;;;;;;5133478;27;19933;-42
2023/06/04 07:10:59;;;;;;;;;;;14.50;99.90;;;;;;5134191;27;19908;-43
2023/06/04 07:13:25;;;;;;;;;;;14.60;99.90;;;;;;5134171;27;19968;-44
2023/06/04 07:15:50;;;;;;;;;;;14.70;99.90;;;;;;5133154;27;19959;-43
2023/06/04 07:18:16;;;;;;;;;;;14.70;99.90;;;;;;5134200;27;19914;-45
2023/06/04 07:20:41;;;;;;;;;;;14.80;99.90;;;;;;5134123;27;19915;-48
2023/06/04 07:23:07;;;;;;;;;;;14.90;99.90;;;;;;5133411;27;19911;-43
2023/06/04 07:25:32;;;;;;;;;;;14.90;99.90;;;;;;5134054;27;20393;-43
2023/06/04 07:27:58;;;;;;;;;;;15.00;99.90;;;;;;5133944;27;19908;-44
2023/06/04 07:30:24;;;;;;;;;;;15.00;99.90;;;;;;5133173;27;19914;-43
2023/06/04 07:32:50;;;;;;;;;;;15.10;99.90;;;;;;5133866;27;20266;-44
2023/06/04 07:35:16;;;;;;;;;;;15.10;99.90;;;;;;5133920;27;19914;-45
2023/06/04 07:37:44;;;;;;;;;;;15.20;99.90;;;;;;5132871;27;19919;-44
2023/06/04 07:40:10;;;;;;;;;;;15.30;99.90;;;;;;5133841;27;20006;-43
2023/06/04 07:42:36;;;;;;;;;;;15.30;99.90;;;;;;5133756;27;19911;-45
2023/06/04 07:45:01;;;;;;;;;;;15.40;99.90;;;;;;5132854;27;19914;-45
2023/06/04 07:47:27;;;;;;;;;;;15.50;99.90;;;;;;5133793;27;19912;-48
2023/06/04 07:49:53;;;;;;;;;;;15.50;99.90;;;;;;5133717;27;19908;-48
2023/06/04 07:52:18;;;;;;;;;;;15.60;99.90;;;;;;5132980;28;20006;-45
2023/06/04 07:54:44;;;;;;;;;;;15.60;99.90;;;;;;5133474;28;19990;-45
2023/06/04 07:57:10;;;;;;;;;;;15.70;99.90;;;;;;5133544;28;19920;-43
2023/06/04 07:59:35;;;;;;;;;;;15.70;99.90;;;;;;5132790;28;20243;-43
2023/06/04 08:02:01;;;;;;;;;;;15.80;99.90;;;;;;5133595;28;19914;-44
2023/06/04 08:04:26;;;;;;;;;;;15.90;99.90;;;;;;5132849;28;19911;-44
2023/06/04 08:06:52;;;;;;;;;;;16.00;99.90;;;;;;5133603;28;20002;-45
2023/06/04 08:09:18;;;;;;;;;;;16.00;99.90;;;;;;5133504;28;20285;-47
2023/06/04 08:11:44;;;;;;;;;;;16.10;99.90;;;;;;5132607;28;19921;-44
2023/06/04 08:14:11;;;;;;;;;;;16.20;99.90;;;;;;5136636;27;20009;-45
2023/06/04 08:16:36;;;;;;;;;;;16.30;99.90;;;;;;5137558;27;19915;-46
2023/06/04 08:19:02;;;;;;;;;;;16.40;99.90;;;;;;5136814;27;20009;-45
2023/06/04 08:21:28;;;;;;;;;;;16.50;99.90;;;;;;5137494;27;19912;-44
2023/06/04 08:23:54;;;;;;;;;;;16.50;99.90;;;;;;5137462;27;19915;-47
2023/06/04 08:26:19;;;;;;;;;;;16.60;99.90;;;;;;5136627;27;19949;-45
2023/06/04 08:28:47;;;;;;;;;;;16.70;99.90;;;;;;5137376;27;20372;-49
2023/06/04 08:31:13;;;;;;;;;;;16.80;99.90;;;;;;5137385;27;20247;-43
2023/06/04 08:33:38;;;;;;;;;;;16.90;99.90;;;;;;5136530;27;19914;-43
2023/06/04 08:36:04;;;;;;;;;;;16.90;99.90;;;;;;5137342;27;19995;-45
2023/06/04 08:38:30;;;;;;;;;;;17.00;99.90;;;;;;5136972;27;19920;-46
2023/06/04 08:40:57;;;;;;;;;;;17.10;99.90;;;;;;5136498;27;19914;-46
2023/06/04 08:43:24;;;;;;;;;;;17.20;99.90;;;;;;5137099;27;20002;-45
2023/06/04 08:45:52;;;;;;;;;;;17.20;99.90;;;;;;5137228;27;19911;-46
2023/06/04 08:48:20;;;;;;;;;;;17.40;99.90;;;;;;5136249;27;20391;-43
2023/06/04 08:50:47;;;;;;;;;;;17.40;99.90;;;;;;5137018;27;20282;-43
2023/06/04 08:53:15;;;;;;;;;;;17.50;99.90;;;;;;5136866;27;19998;-44
2023/06/04 08:55:41;;;;;;;;;;;17.60;99.90;;;;;;5136190;27;19919;-44
2023/06/04 08:58:08;;;;;;;;;;;17.70;99.90;;;;;;5136908;27;20342;-44
2023/06/04 09:00:33;;;;;;;;;;;17.80;99.90;;;;;;5135886;27;19961;-47
2023/06/04 09:03:01;;;;;;;;;;;17.90;99.90;;;;;;5136824;27;19950;-44
2023/06/04 09:05:27;;;;;;;;;;;18.00;99.90;;;;;;5136714;27;19912;-44
2023/06/04 09:07:54;;;;;;;;;;;18.10;99.90;;;;;;5136076;27;19912;-45
2023/06/04 09:10:21;;;;;;;;;;;18.20;99.90;;;;;;5136618;27;19907;-47
2023/06/04 09:12:47;;;;;;;;;;;18.30;99.90;;;;;;5136449;27;20006;-44
2023/06/04 09:15:12;;;;;;;;;;;18.40;99.70;;;;;;5135732;27;19998;-45
2023/06/04 09:17:38;;;;;;;;;;;18.50;99.90;;;;;;5136373;27;19972;-43
2023/06/04 09:20:05;;;;;;;;;;;18.50;99.70;;;;;;5136444;27;19998;-45
2023/06/04 09:22:37;;;;;;;;;;;18.60;99.10;;;;;;5135513;27;19907;-45
2023/06/04 09:25:08;;;;;;;;;;;18.70;97.60;;;;;;5135346;27;19907;-45
2023/06/04 09:27:38;;;;;;;;;;;18.70;97.20;;;;;;5136244;27;19914;-43
2023/06/04 09:30:03;;;;;;;;;;;18.80;98.10;;;;;;5135500;27;19969;-44
2023/06/04 09:32:30;;;;;;;;;;;18.80;97.50;;;;;;5136189;27;19911;-44
2023/06/04 09:35:08;;;;;;;;;;;18.90;97.40;;;;;;5136311;27;19914;-43
2023/06/04 09:37:34;;;;;;;;;;;18.90;96.70;;;;;;5134974;27;20297;-44
2023/06/04 09:39:59;;;;;;;;;;;19.00;96.20;;;;;;5136114;27;19907;-45
2023/06/04 09:42:25;;;;;;;;;;;19.00;95.50;;;;;;5135889;27;19907;-43
2023/06/04 09:44:51;;;;;;;;;;;19.10;95.10;;;;;;5135323;27;19908;-44
2023/06/04 09:47:16;;;;;;;;;;;19.10;95.40;;;;;;5135883;27;20362;-46
2023/06/04 09:49:42;;;;;;;;;;;19.20;95.10;;;;;;5135834;27;20041;-43
2023/06/04 09:52:08;;;;;;;;;;;19.20;95.40;;;;;;5135111;27;19911;-45
2023/06/04 09:54:37;;;;;;;;;;;19.30;95.10;;;;;;5135676;27;19915;-47
2023/06/04 09:57:05;;;;;;;;;;;19.30;95.10;;;;;;5134896;27;19938;-45
2023/06/04 09:59:33;;;;;;;;;;;19.40;94.20;;;;;;5135631;27;19908;-44
2023/06/04 10:01:59;;;;;;;;;;;19.50;94.10;;;;;;5135612;27;19925;-44
2023/06/04 10:04:24;;;;;;;;;;;19.60;92.90;;;;;;5134740;27;20262;-45
2023/06/04 10:06:50;;;;;;;;;;;19.70;92.80;;;;;;5135539;27;19943;-46
2023/06/04 10:09:16;;;;;;;;;;;19.80;92.40;;;;;;5135495;27;19914;-45
2023/06/04 10:11:49;;;;;;;;;;;19.80;92.30;;;;;;5134631;27;19907;-48
2023/06/04 10:14:17;;;;;;;;;;;19.80;92.00;;;;;;5135439;27;19915;-43
2023/06/04 10:16:43;;;;;;;;;;;19.90;91.20;;;;;;5135116;27;19919;-44
2023/06/04 10:19:09;;;;;;;;;;;19.90;90.10;;;;;;5134574;27;20028;-47
2023/06/04 10:21:36;;;;;;;;;;;20.00;89.50;;;;;;5135230;27;19915;-44
2023/06/04 10:24:01;;;;;;;;;;;20.00;90.10;;;;;;5135156;27;20004;-48
2023/06/04 10:26:27;;;;;;;;;;;20.10;90.20;;;;;;5134579;27;19949;-44
2023/06/04 10:28:53;;;;;;;;;;;20.10;88.90;;;;;;5135132;27;19958;-44
2023/06/04 10:31:18;;;;;;;;;;;20.20;89.50;;;;;;5134952;27;20004;-45
2023/06/04 10:33:44;;;;;;;;;;;20.30;89.30;;;;;;5134181;27;19912;-45
2023/06/04 10:36:17;;;;;;;;;;;20.40;88.80;;;;;;5134825;27;20027;-43
2023/06/04 10:38:46;;;;;;;;;;;20.50;89.20;;;;;;5134667;27;19963;-45
2023/06/04 10:41:16;;;;;;;;;;;20.50;85.70;;;;;;5134101;27;19911;-47
2023/06/04 10:43:42;;;;;;;;;;;20.60;85.70;;;;;;5134646;27;20350;-42
2023/06/04 10:46:12;;;;;;;;;;;20.70;84.80;;;;;;5133961;27;19998;-45
2023/06/04 10:48:44;;;;;;;;;;;20.80;84.20;;;;;;5134643;27;20450;-46
2023/06/04 10:51:10;;;;;;;;;;;20.80;86.70;;;;;;5134701;27;20338;-44
2023/06/04 10:53:38;;;;;;;;;;;20.90;85.30;;;;;;5133766;27;19939;-44
2023/06/04 10:56:04;;;;;;;;;;;20.80;82.40;;;;;;5134412;27;19923;-44
2023/06/04 10:58:33;;;;;;;;;;;20.90;81.90;;;;;;5134472;27;19911;-43
2023/06/04 11:00:59;;;;;;;;;;;21.00;80.70;;;;;;5133663;27;19908;-43
2023/06/04 11:03:34;;;;;;;;;;;20.90;79.40;;;;;;5134686;27;19952;-45
2023/06/04 11:06:00;;;;;;;;;;;21.00;78.10;;;;;;5134306;27;20381;-43
2023/06/04 11:08:28;;;;;;;;;;;21.00;77.50;;;;;;5133326;27;19908;-44
2023/06/04 11:10:53;;;;;;;;;;;21.00;76.00;;;;;;5134145;27;19938;-46
2023/06/04 11:13:22;;;;;;;;;;;21.00;77.10;;;;;;5134264;27;19966;-45
2023/06/04 11:15:48;;;;;;;;;;;21.00;75.50;;;;;;5133280;27;19919;-43
2023/06/04 11:18:17;;;;;;;;;;;21.10;74.20;;;;;;5134025;27;20002;-46
2023/06/04 11:20:46;;;;;;;;;;;21.10;75.30;;;;;;5133900;27;19907;-45
2023/06/04 11:23:13;;;;;;;;;;;21.10;73.50;;;;;;5133187;27;19908;-46
2023/06/04 11:25:39;;;;;;;;;;;21.20;74.40;;;;;;5133990;27;19936;-46
2023/06/04 11:28:04;;;;;;;;;;;21.30;74.10;;;;;;5133888;27;19915;-44
2023/06/04 11:30:30;;;;;;;;;;;21.40;75.70;;;;;;5133148;27;19907;-44
2023/06/04 11:33:04;;;;;;;;;;;21.50;76.60;;;;;;5133895;27;20277;-43
2023/06/04 11:35:30;;;;;;;;;;;21.60;76.10;;;;;;5132885;27;19918;-43
2023/06/04 11:37:57;;;;;;;;;;;21.60;76.30;;;;;;5133474;27;19920;-44
2023/06/04 11:40:22;;;;;;;;;;;21.60;74.20;;;;;;5133729;27;19907;-44
2023/06/04 11:42:48;;;;;;;;;;;21.70;72.40;;;;;;5132991;27;19994;-43
2023/06/04 11:45:14;;;;;;;;;;;21.80;74.70;;;;;;5133824;27;19946;-45
2023/06/04 11:47:51;;;;;;;;;;;21.80;74.10;;;;;;5133322;27;19919;-44
2023/06/04 11:50:16;;;;;;;;;;;21.70;72.70;;;;;;5132811;27;19937;-45
2023/06/04 11:52:42;;;;;;;;;;;21.80;72.50;;;;;;5133588;27;19930;-44
2023/06/04 11:55:09;;;;;;;;;;;21.90;71.40;;;;;;5133808;28;19911;-45
2023/06/04 11:57:35;;;;;;;;;;;21.90;73.00;;;;;;5132681;28;19923;-45
2023/06/04 12:00:01;;;;;;;;;;;21.90;70.90;;;;;;5133687;28;19937;-44
2023/06/04 12:02:26;;;;;;;;;;;22.00;70.70;;;;;;5133598;28;20318;-45
2023/06/04 12:04:52;;;;;;;;;;;22.00;70.50;;;;;;5132586;28;19908;-44
2023/06/04 12:07:23;;;;;;;;;;;22.00;70.20;;;;;;5133626;28;20008;-46
2023/06/04 12:09:49;;;;;;;;;;;22.00;69.40;;;;;;5133532;28;19915;-44
2023/06/04 12:12:21;;;;;;;;;;;22.00;68.90;;;;;;5132775;28;19907;-46
2023/06/04 12:14:46;;;;;;;;;;;22.20;70.80;;;;;;5133546;28;19939;-45
2023/06/04 12:17:12;;;;;;;;;;;22.20;64.90;;;;;;5133447;28;19954;-44
2023/06/04 12:19:50;;;;;;;;;;;22.30;67.80;;;;;;5132518;28;19933;-43
2023/06/04 12:22:16;;;;;;;;;;;22.40;66.80;;;;;;5133444;28;20308;-44
2023/06/04 12:24:48;;;;;;;;;;;22.50;66.90;;;;;;5132516;28;19918;-46
2023/06/04 12:27:15;;;;;;;;;;;22.60;60.90;;;;;;5133326;28;19984;-45
2023/06/04 12:29:40;;;;;;;;;;;22.60;65.40;;;;;;5133371;28;19911;-44
2023/06/04 12:32:11;;;;;;;;;;;22.60;65.10;;;;;;5132571;28;19907;-46
2023/06/04 12:34:40;;;;;;;;;;;22.80;66.90;;;;;;5133452;28;19952;-45
2023/06/04 12:37:06;;;;;;;;;;;23.10;67.10;;;;;;5132988;28;19958;-44
2023/06/04 12:39:36;;;;;;;;;;;23.30;66.70;;;;;;5132377;28;19950;-49
2023/06/04 12:42:05;;;;;;;;;;;23.60;66.40;;;;;;5133397;28;19907;-47
2023/06/04 12:44:31;;;;;;;;;;;23.70;64.40;;;;;;5133136;28;19943;-45
2023/06/04 12:46:56;;;;;;;;;;;23.90;63.40;;;;;;5132375;28;19947;-47
2023/06/04 12:49:22;;;;;;;;;;;24.10;64.10;;;;;;5133195;28;19918;-45
2023/06/04 12:51:47;;;;;;;;;;;24.40;64.20;;;;;;5133074;28;19914;-43
2023/06/04 12:54:13;;;;;;;;;;;24.50;62.20;;;;;;5132441;28;19908;-45
2023/06/04 12:56:39;;;;;;;;;;;24.70;61.80;;;;;;5132985;28;20381;-47
2023/06/04 12:59:05;;;;;;;;;;;24.90;62.50;;;;;;5133119;27;19908;-44
2023/06/04 13:01:30;;;;;;;;;;;25.00;62.40;;;;;;5135660;27;19908;-44
2023/06/04 13:03:56;;;;;;;;;;;25.10;61.10;;;;;;5137091;27;19921;-44
2023/06/04 13:06:21;;;;;;;;;;;25.30;62.20;;;;;;5118338;27;20369;-46
2023/06/04 13:08:47;;;;;;;;;;;25.30;59.90;;;;;;5135712;27;19942;-45
2023/06/04 13:11:13;;;;;;;;;;;25.40;59.60;;;;;;5136715;27;19918;-46
2023/06/04 13:13:38;;;;;;;;;;;25.50;59.40;;;;;;5136475;27;19918;-45
2023/06/04 13:16:04;;;;;;;;;;;25.70;60.30;;;;;;5135753;27;19915;-45
2023/06/04 13:18:29;;;;;;;;;;;25.70;61.70;;;;;;5136474;27;20366;-44
2023/06/04 13:20:55;;;;;;;;;;;25.80;61.50;;;;;;5135765;27;19908;-44
2023/06/04 13:23:21;;;;;;;;;;;26.00;60.90;;;;;;5136314;27;20017;-47
2023/06/04 13:25:46;;;;;;;;;;;26.10;60.80;;;;;;5136364;27;19960;-44
2023/06/04 13:28:12;;;;;;;;;;;26.20;59.40;;;;;;5135502;27;19908;-47
2023/06/04 13:30:38;;;;;;;;;;;26.30;57.50;;;;;;5136229;27;19907;-47
2023/06/04 13:33:04;;;;;;;;;;;26.40;59.30;;;;;;5136205;27;19953;-45
2023/06/04 13:35:30;;;;;;;;;;;26.50;60.40;;;;;;5135236;27;19915;-45
2023/06/04 13:37:55;;;;;;;;;;;26.60;59.70;;;;;;5135889;27;19920;-44
2023/06/04 13:40:21;;;;;;;;;;;26.70;59.00;;;;;;5136022;27;19969;-46
2023/06/04 13:42:46;;;;;;;;;;;26.70;57.70;;;;;;5135016;27;19915;-44
2023/06/04 13:45:12;;;;;;;;;;;26.80;57.90;;;;;;5135941;27;19911;-46
2023/06/04 13:47:37;;;;;;;;;;;26.80;57.20;;;;;;5135767;27;19907;-46
2023/06/04 13:50:03;;;;;;;;;;;26.90;57.40;;;;;;5135201;27;19915;-45
2023/06/04 13:52:29;;;;;;;;;;;26.90;58.70;;;;;;5135826;27;20376;-44
2023/06/04 13:54:55;;;;;;;;;;;27.00;57.50;;;;;;5135815;27;20377;-45
2023/06/04 13:57:21;;;;;;;;;;;27.00;57.60;;;;;;5134866;27;19919;-45
2023/06/04 13:59:46;;;;;;;;;;;27.10;57.40;;;;;;5135696;27;19998;-46
2023/06/04 14:02:12;;;;;;;;;;;27.10;57.40;;;;;;5135705;27;19907;-45
2023/06/04 14:04:37;;;;;;;;;;;27.20;57.60;;;;;;5134810;27;19918;-45
2023/06/04 14:07:03;;;;;;;;;;;27.40;58.30;;;;;;5135663;27;20393;-45
2023/06/04 14:09:28;;;;;;;;;;;27.50;57.90;;;;;;5135281;27;19923;-46
2023/06/04 14:11:54;;;;;;;;;;;27.70;58.10;;;;;;5134484;27;19960;-44